Time;durP1;ratioP1;P1;durP2;ratioP2;P2;SDS_P1;SDS_P2;PMS_P1;PMS_P2;Temp;Humidity;BMP_temperature;BMP_pressure;BME280_temperature;BME280_humidity;BME280_pressure;Samples;Min_cycle;Max_cycle;Signal;HPM_P1;HPM_P2
2022/10/29 00:02:27;;;;;;;78.70;48.70;;;;;;;9.40;76.75;101614.45;124045;1099;103646;-71
2022/10/29 00:04:58;;;;;;;82.67;47.83;;;;;;;9.41;76.86;101611.92;124079;1099;104348;-71
2022/10/29 00:07:29;;;;;;;83.87;49.07;;;;;;;9.41;77.42;101611.00;124081;1102;103021;-71
2022/10/29 00:10:00;;;;;;;85.47;51.43;;;;;;;9.37;77.17;101614.27;124138;1100;103676;-70
2022/10/29 00:12:31;;;;;;;83.57;50.23;;;;;;;9.35;77.64;101611.56;124074;1102;103729;-71
2022/10/29 00:15:03;;;;;;;89.87;54.40;;;;;;;9.33;76.98;101615.78;124039;1099;104081;-71
2022/10/29 00:17:35;;;;;;;90.30;54.03;;;;;;;9.32;77.72;101614.89;124091;1099;104226;-71
2022/10/29 00:20:08;;;;;;;83.77;53.53;;;;;;;9.34;77.05;101610.64;124016;1102;103945;-71
2022/10/29 00:22:39;;;;;;;83.05;53.08;;;;;;;9.32;77.68;101601.80;124123;1099;104319;-71
2022/10/29 00:25:11;;;;;;;82.20;53.07;;;;;;;9.33;77.31;101600.07;124050;1102;103358;-71
2022/10/29 00:27:42;;;;;;;88.40;53.20;;;;;;;9.34;77.65;101609.75;124059;1102;104210;-70
2022/10/29 00:30:15;;;;;;;88.00;53.70;;;;;;;9.34;77.80;101602.78;124121;1102;104210;-71
2022/10/29 00:32:46;;;;;;;84.80;52.13;;;;;;;9.33;77.68;101603.62;124062;1102;104182;-71
2022/10/29 00:35:17;;;;;;;83.00;53.57;;;;;;;9.32;77.80;101595.67;124067;1099;104248;-71
2022/10/29 00:37:48;;;;;;;88.03;53.23;;;;;;;9.30;77.92;101606.05;124064;1099;104236;-70
2022/10/29 00:40:20;;;;;;;87.03;54.03;;;;;;;9.26;77.28;101601.44;124088;1102;104374;-71
2022/10/29 00:42:51;;;;;;;89.47;52.33;;;;;;;9.22;77.87;101593.31;124035;1099;104331;-71
2022/10/29 00:45:22;;;;;;;89.97;52.53;;;;;;;9.20;77.54;101593.22;124074;1099;104195;-71
2022/10/29 00:47:54;;;;;;;83.87;51.10;;;;;;;9.17;77.26;101590.42;124109;1102;102822;-70
2022/10/29 00:50:26;;;;;;;82.33;50.90;;;;;;;9.16;77.89;101591.22;124049;1100;102841;-71
2022/10/29 00:52:57;;;;;;;84.10;51.93;;;;;;;9.13;78.02;101585.80;124042;1102;104632;-71
2022/10/29 00:55:28;;;;;;;87.03;52.60;;;;;;;9.14;77.45;101585.89;124024;1099;104275;-71
2022/10/29 00:58:00;;;;;;;81.47;49.83;;;;;;;9.15;77.38;101578.97;124042;1099;104274;-71
2022/10/29 01:00:31;;;;;;;83.53;51.90;;;;;;;9.13;77.65;101567.47;124097;1099;102226;-71
2022/10/29 01:03:02;;;;;;;89.93;51.30;;;;;;;9.12;77.77;101565.69;124104;1098;104175;-71
2022/10/29 01:05:35;;;;;;;81.27;48.40;;;;;;;9.12;78.04;101563.97;124101;1099;104169;-71
2022/10/29 01:08:07;;;;;;;85.22;49.75;;;;;;;9.10;77.57;101567.30;124122;1102;102460;-71
2022/10/29 01:10:50;;;;;;;83.00;49.50;;;;;;;9.06;78.17;101568.84;124106;1100;102318;-71
2022/10/29 01:13:41;;;;;;;79.57;49.73;;;;;;;9.05;78.13;101574.88;124087;1102;102168;-70
2022/10/29 01:16:25;;;;;;;78.37;47.77;;;;;;;9.00;77.89;101576.33;124134;1099;104237;-71
2022/10/29 01:19:10;;;;;;;79.77;48.33;;;;;;;9.00;77.85;101571.09;124059;1099;104179;-71
2022/10/29 01:21:42;;;;;;;;;;;;;;;8.97;78.01;101574.42;124174;1102;104245;-71
2022/10/29 01:24:34;;;;;;;75.17;44.07;;;;;;;8.96;78.34;101575.26;124104;1102;104230;-71
2022/10/29 01:27:35;;;;;;;77.80;44.53;;;;;;;8.96;78.37;101575.26;124189;1102;104264;-71
2022/10/29 01:30:16;;;;;;;74.97;45.73;;;;;;;8.97;78.09;101576.15;123970;1101;104366;-71
2022/10/29 01:32:55;;;;;;;74.83;44.30;;;;;;;8.99;77.89;101571.89;124081;1102;104642;-71
2022/10/29 01:35:34;;;;;;;70.57;42.63;;;;;;;8.98;78.17;101572.73;124079;1100;104182;-70
2022/10/29 01:38:20;;;;;;;64.10;39.93;;;;;;;8.97;77.97;101570.91;124052;1102;109395;-71
2022/10/29 01:41:00;;;;;;;69.70;41.60;;;;;;;8.95;77.87;101572.55;124127;1099;104255;-71
2022/10/29 01:43:39;;;;;;;69.35;41.45;;;;;;;8.94;78.16;101570.73;124087;1102;104345;-70
2022/10/29 01:46:16;;;;;;;63.33;40.93;;;;;;;8.93;77.88;101571.56;124050;1099;104175;-71
2022/10/29 01:48:51;;;;;;;66.57;40.13;;;;;;;8.93;78.23;101569.84;124085;1101;103660;-71
2022/10/29 01:51:26;;;;;;;65.20;39.20;;;;;;;8.93;78.30;101567.22;124065;1102;104252;-71
2022/10/29 01:53:59;;;;;;;64.67;38.43;;;;;;;8.94;78.41;101566.42;124100;1102;104344;-71
2022/10/29 01:56:31;;;;;;;60.58;36.63;;;;;;;8.95;78.45;101570.83;124030;1099;104280;-71
2022/10/29 01:59:06;;;;;;;68.90;39.60;;;;;;;8.96;78.32;101559.55;124069;1102;104245;-71
2022/10/29 02:01:51;;;;;;;64.10;37.10;;;;;;;8.96;78.42;101563.86;124076;1099;104245;-71
2022/10/29 02:04:48;;;;;;;62.47;34.67;;;;;;;8.94;78.17;101549.79;124084;1102;104339;-71
2022/10/29 02:07:29;;;;;;;55.30;33.37;;;;;;;8.94;78.71;101552.41;124119;1099;104179;-71
2022/10/29 02:10:08;;;;;;;62.50;37.10;;;;;;;8.93;78.78;101551.52;124080;1102;104200;-71
2022/10/29 02:12:46;;;;;;;63.13;36.00;;;;;;;8.93;78.68;101554.13;124059;1102;104332;-71
2022/10/29 02:15:21;;;;;;;61.33;34.53;;;;;;;8.91;78.54;101565.31;124070;1102;104290;-71
2022/10/29 02:17:53;;;;;;;59.57;35.53;;;;;;;8.86;78.45;101561.53;124086;1099;104179;-71
2022/10/29 02:20:24;;;;;;;58.70;35.00;;;;;;;8.85;78.61;101559.71;124076;1102;104182;-71
2022/10/29 02:22:55;;;;;;;55.93;33.70;;;;;;;8.85;78.17;101549.24;124075;1100;104255;-71
2022/10/29 02:25:26;;;;;;;61.30;35.35;;;;;;;8.85;78.81;101551.86;124073;1099;104176;-71
2022/10/29 02:27:57;;;;;;;59.37;34.73;;;;;;;8.85;78.83;101557.09;124057;1099;104182;-70
2022/10/29 02:30:29;;;;;;;58.33;33.57;;;;;;;8.83;78.30;101546.53;124126;1102;104345;-71
2022/10/29 02:33:00;;;;;;;60.83;33.80;;;;;;;8.84;78.59;101544.84;124068;1102;103645;-71
2022/10/29 02:35:31;;;;;;;58.27;32.07;;;;;;;8.83;79.02;101546.53;124063;1100;104372;-71
2022/10/29 02:38:02;;;;;;;52.80;32.97;;;;;;;8.77;78.93;101544.48;124107;1099;104179;-71
2022/10/29 02:40:33;;;;;;;54.57;30.93;;;;;;;8.72;78.57;101550.23;124053;1099;102315;-71
2022/10/29 02:43:04;;;;;;;58.93;33.70;;;;;;;8.69;78.84;101550.05;124066;1102;102226;-71
2022/10/29 02:45:35;;;;;;;54.43;32.63;;;;;;;8.69;79.07;101545.70;124067;1099;104268;-71
2022/10/29 02:48:07;;;;;;;51.77;31.60;;;;;;;8.68;78.97;101549.16;124018;1099;102247;-71
2022/10/29 02:50:38;;;;;;;57.23;34.10;;;;;;;8.62;78.53;101549.68;124052;1102;104310;-70
2022/10/29 02:53:09;;;;;;;63.03;38.67;;;;;;;8.60;78.72;101553.00;124063;1102;104172;-71
2022/10/29 02:55:40;;;;;;;70.00;42.90;;;;;;;8.55;78.97;101550.11;124076;1102;103818;-71
2022/10/29 02:58:11;;;;;;;87.93;56.33;;;;;;;8.52;78.52;101552.53;124077;1102;104252;-70
2022/10/29 03:00:42;;;;;;;101.17;64.77;;;;;;;8.52;78.70;101543.80;124118;1099;104233;-71
2022/10/29 03:03:13;;;;;;;95.90;65.40;;;;;;;8.45;78.95;101553.88;124085;1099;102844;-71
2022/10/29 03:05:44;;;;;;;103.67;65.57;;;;;;;8.44;78.68;101552.06;124075;1102;104338;-71
2022/10/29 03:08:15;;;;;;;98.27;63.17;;;;;;;8.40;79.01;101546.55;124100;1099;104280;-71
2022/10/29 03:10:46;;;;;;;92.60;60.43;;;;;;;8.35;78.34;101541.04;124077;1102;104175;-70
2022/10/29 03:13:18;;;;;;;90.47;59.00;;;;;;;8.32;78.81;101533.01;124066;1102;104246;-71
2022/10/29 03:15:49;;;;;;;86.07;54.90;;;;;;;8.30;79.05;101531.09;124059;1100;103854;-71
2022/10/29 03:18:20;;;;;;;75.43;48.20;;;;;;;8.28;78.65;101529.28;124094;1100;104270;-70
2022/10/29 03:20:51;;;;;;;73.33;46.27;;;;;;;8.26;79.04;101525.67;124061;1099;104274;-71
2022/10/29 03:23:22;;;;;;;75.57;47.27;;;;;;;8.27;78.82;101516.11;124079;1102;104242;-71
2022/10/29 03:25:55;;;;;;;77.70;48.27;;;;;;;8.28;78.71;101524.05;124080;1100;104207;-71
2022/10/29 03:28:29;;;;;;;79.33;46.70;;;;;;;8.27;78.76;101509.19;124052;1102;104067;-71
2022/10/29 03:31:00;;;;;;;71.92;45.38;;;;;;;8.25;78.78;101515.13;124107;1102;104230;-71
2022/10/29 03:33:31;;;;;;;73.20;44.87;;;;;;;8.22;79.22;101513.21;124062;1101;104213;-71
2022/10/29 03:36:05;;;;;;;78.73;48.17;;;;;;;8.20;78.52;101507.00;124045;1102;104220;-71
2022/10/29 03:38:36;;;;;;;74.70;46.98;;;;;;;8.17;79.11;101503.30;124067;1102;104169;-72
2022/10/29 03:41:09;;;;;;;81.10;47.57;;;;;;;8.13;78.50;101498.68;124060;1100;104057;-73
2022/10/29 03:43:40;;;;;;;77.37;48.73;;;;;;;8.09;78.81;101493.27;124101;1102;104185;-73
2022/10/29 03:46:12;;;;;;;76.73;46.27;;;;;;;8.09;78.86;101489.76;124027;1100;104779;-71
2022/10/29 03:48:43;;;;;;;73.97;46.33;;;;;;;8.04;79.09;101480.70;124070;1102;102848;-71
2022/10/29 03:51:14;;;;;;;77.67;48.27;;;;;;;8.02;78.91;101485.84;124081;1102;104239;-71
2022/10/29 03:53:45;;;;;;;78.87;48.57;;;;;;;8.00;78.94;101486.58;124053;1102;104245;-71
2022/10/29 03:56:16;;;;;;;74.47;47.90;;;;;;;7.96;79.04;101477.61;124056;1101;104271;-71
2022/10/29 03:58:47;;;;;;;82.10;48.23;;;;;;;7.96;79.19;101479.34;124066;1102;104277;-71
2022/10/29 04:01:18;;;;;;;78.90;49.00;;;;;;;7.95;78.80;101477.52;124096;1102;104208;-70
2022/10/29 04:03:49;;;;;;;72.37;46.90;;;;;;;7.94;79.35;101483.58;124103;1100;104245;-71
2022/10/29 04:06:20;;;;;;;72.70;43.03;;;;;;;7.88;78.81;101479.79;124086;1101;104251;-71
2022/10/29 04:08:51;;;;;;;64.00;39.57;;;;;;;7.80;78.97;101485.33;124093;1102;104193;-71
2022/10/29 04:11:22;;;;;;;64.30;38.67;;;;;;;7.71;78.92;101486.57;124093;1102;104204;-71
2022/10/29 04:13:55;;;;;;;62.73;36.90;;;;;;;7.68;79.19;101488.06;124088;1102;102864;-71
2022/10/29 04:16:26;;;;;;;60.17;36.03;;;;;;;7.60;78.87;101489.30;124123;1102;104721;-70
2022/10/29 04:18:57;;;;;;;61.33;37.50;;;;;;;7.55;78.90;101482.06;124051;1102;104172;-71
2022/10/29 04:21:28;;;;;;;60.80;37.33;;;;;;;7.52;79.23;101484.47;124051;1102;104256;-71
2022/10/29 04:23:59;;;;;;;70.33;37.57;;;;;;;7.54;78.85;101487.19;124072;1102;104270;-70
2022/10/29 04:26:30;;;;;;;63.63;37.83;;;;;;;7.55;78.93;101495.12;124065;1102;104236;-71
2022/10/29 04:29:02;;;;;;;71.13;40.57;;;;;;;7.56;79.25;101489.10;124057;1102;104399;-71
2022/10/29 04:31:33;;;;;;;65.50;39.77;;;;;;;7.58;78.77;101490.92;124053;1102;108240;-71
2022/10/29 04:34:04;;;;;;;67.30;38.87;;;;;;;7.60;78.88;101484.07;124070;1102;104248;-71
2022/10/29 04:36:35;;;;;;;63.80;37.77;;;;;;;7.59;79.00;101488.41;124100;1100;104175;-70
2022/10/29 04:39:06;;;;;;;65.10;36.50;;;;;;;7.58;79.23;101498.75;124104;1102;102247;-71
2022/10/29 04:41:37;;;;;;;61.13;35.53;;;;;;;7.58;79.23;101490.92;124055;1100;119072;-71
2022/10/29 04:44:08;;;;;;;67.17;37.10;;;;;;;7.57;79.15;101487.37;124080;1102;104207;-71
2022/10/29 04:46:40;;;;;;;57.83;36.17;;;;;;;7.59;78.96;101492.70;124097;1102;103684;-70
2022/10/29 04:49:11;;;;;;;65.03;37.47;;;;;;;7.58;79.46;101488.30;124088;1102;104264;-71
2022/10/29 04:51:42;;;;;;;66.50;39.73;;;;;;;7.60;79.31;101491.91;124115;1102;104248;-71
2022/10/29 04:54:14;;;;;;;63.73;39.37;;;;;;;7.62;79.18;101492.89;124085;1102;104266;-71
2022/10/29 04:56:45;;;;;;;67.33;39.30;;;;;;;7.63;79.25;101497.33;124103;1102;104419;-71
2022/10/29 04:59:16;;;;;;;69.10;41.67;;;;;;;7.61;78.82;101496.34;124068;1102;104166;-70
2022/10/29 05:01:47;;;;;;;71.23;40.50;;;;;;;7.59;78.98;101506.69;124109;1102;103661;-70
2022/10/29 05:04:18;;;;;;;66.93;39.10;;;;;;;7.54;79.13;101509.00;124122;1101;101866;-70
2022/10/29 05:06:49;;;;;;;60.20;38.00;;;;;;;7.54;79.01;101506.39;124138;1102;103801;-71
2022/10/29 05:09:20;;;;;;;62.37;37.27;;;;;;;7.56;79.17;101512.61;123999;1102;104277;-71
2022/10/29 05:11:51;;;;;;;63.10;38.47;;;;;;;7.54;79.24;101523.75;124095;1101;104217;-71
2022/10/29 05:14:22;;;;;;;62.37;38.00;;;;;;;7.58;79.60;101530.98;124085;1102;104261;-71
2022/10/29 05:16:54;;;;;;;67.03;39.07;;;;;;;7.63;79.36;101526.06;124052;1102;102595;-70
2022/10/29 05:19:25;;;;;;;64.03;37.60;;;;;;;7.68;78.99;101527.25;124070;1102;104325;-71
2022/10/29 05:21:56;;;;;;;60.37;38.37;;;;;;;7.73;79.36;101518.02;124036;1100;104470;-70
2022/10/29 05:24:27;;;;;;;62.90;38.23;;;;;;;7.80;79.40;101517.58;124088;1100;104200;-70
2022/10/29 05:26:58;;;;;;;66.00;37.93;;;;;;;7.88;79.56;101515.45;124067;1100;104242;-70
2022/10/29 05:29:29;;;;;;;66.27;40.50;;;;;;;7.92;79.11;101522.69;124128;1102;102228;-71
2022/10/29 05:32:00;;;;;;;65.43;37.17;;;;;;;7.87;79.45;101517.17;124032;1102;104166;-71
2022/10/29 05:34:31;;;;;;;62.33;38.17;;;;;;;7.79;78.73;101521.02;124049;1102;104283;-71
2022/10/29 05:37:03;;;;;;;61.40;35.57;;;;;;;7.73;79.12;101520.63;124097;1102;103639;-71
2022/10/29 05:39:34;;;;;;;63.20;36.17;;;;;;;7.65;78.94;101527.98;124081;1101;104198;-71
2022/10/29 05:42:05;;;;;;;59.33;33.80;;;;;;;7.61;79.21;101533.80;124078;1099;104172;-71
2022/10/29 05:44:36;;;;;;;55.00;35.00;;;;;;;7.55;79.21;101536.91;124009;1102;104194;-71
2022/10/29 05:47:09;;;;;;;56.60;34.20;;;;;;;7.53;78.91;101541.14;124147;1100;104105;-70
2022/10/29 05:49:40;;;;;;;50.90;31.67;;;;;;;7.50;78.80;101540.94;124108;1102;102838;-71
2022/10/29 05:52:11;;;;;;;53.90;33.83;;;;;;;7.45;78.81;101544.97;124074;1100;104309;-71
2022/10/29 05:54:42;;;;;;;56.37;32.80;;;;;;;7.43;79.31;101536.11;124096;1102;104198;-70
2022/10/29 05:57:13;;;;;;;56.95;35.00;;;;;;;7.43;79.01;101546.56;124086;1100;102485;-70
2022/10/29 05:59:45;;;;;;;55.30;33.57;;;;;;;7.44;79.46;101542.27;124077;1102;104176;-71
2022/10/29 06:02:16;;;;;;;54.57;34.10;;;;;;;7.42;79.30;101547.38;124166;1102;104257;-71
2022/10/29 06:04:47;;;;;;;53.03;34.37;;;;;;;7.48;79.23;101550.39;124065;1100;104040;-71
2022/10/29 06:07:20;;;;;;;55.93;34.37;;;;;;;7.48;79.22;101542.56;124078;1102;104179;-71
2022/10/29 06:09:51;;;;;;;56.93;35.33;;;;;;;7.45;79.50;101544.05;124119;1102;104236;-71
2022/10/29 06:12:22;;;;;;;59.83;36.03;;;;;;;7.43;79.56;101538.73;124079;1102;104239;-71
2022/10/29 06:14:53;;;;;;;53.60;32.43;;;;;;;7.44;79.46;101542.27;124091;1101;104338;-71
2022/10/29 06:17:24;;;;;;;52.33;31.90;;;;;;;7.45;79.03;101544.05;124093;1102;104246;-71
2022/10/29 06:19:55;;;;;;;51.80;32.60;;;;;;;7.52;79.17;101541.05;124093;1102;104281;-71
2022/10/29 06:22:26;;;;;;;52.50;33.03;;;;;;;7.66;79.80;101536.70;124069;1102;105573;-71
2022/10/29 06:24:57;;;;;;;51.13;32.23;;;;;;;7.79;79.82;101531.47;124068;1101;104246;-71
2022/10/29 06:27:28;;;;;;;48.93;31.27;;;;;;;7.94;79.79;101530.62;124067;1102;103377;-70
2022/10/29 06:29:59;;;;;;;50.47;31.50;;;;;;;8.08;79.37;101534.99;124070;1102;104271;-71
2022/10/29 06:32:31;;;;;;;52.07;32.60;;;;;;;8.14;79.29;101532.77;124106;1102;104195;-70
2022/10/29 06:35:02;;;;;;;54.87;35.40;;;;;;;8.23;79.81;101535.05;124085;1102;102219;-70
2022/10/29 06:37:37;;;;;;;54.17;34.30;;;;;;;8.33;80.05;101526.05;124056;1102;104255;-70
2022/10/29 06:40:10;;;;;;;52.83;33.10;;;;;;;8.44;79.95;101525.91;124066;1102;104185;-71
2022/10/29 06:42:41;;;;;;;52.03;32.47;;;;;;;8.55;79.69;101529.18;124075;1102;104239;-70
2022/10/29 06:45:13;;;;;;;52.03;32.20;;;;;;;8.62;79.42;101539.21;124089;1102;104198;-71
2022/10/29 06:47:45;;;;;;;48.87;31.60;;;;;;;8.70;79.68;101539.67;124126;1102;104175;-71
2022/10/29 06:50:16;;;;;;;48.80;31.87;;;;;;;8.75;79.31;101535.61;124038;1100;104284;-71
2022/10/29 06:52:55;;;;;;;52.30;32.07;;;;;;;8.81;79.81;101540.31;124086;1099;102485;-71
2022/10/29 06:55:33;;;;;;;53.70;31.60;;;;;;;8.87;79.60;101530.21;124080;1102;104245;-71
2022/10/29 06:58:10;;;;;;;49.27;30.07;;;;;;;8.94;79.53;101540.25;124657;1099;104366;-70
2022/10/29 07:00:42;;;;;;;50.03;30.63;;;;;;;9.00;79.14;101537.95;124604;1099;101915;-71
2022/10/29 07:03:14;;;;;;;46.47;30.20;;;;;;;9.09;79.54;101534.98;124548;1099;104201;-71
2022/10/29 07:05:46;;;;;;;51.73;31.23;;;;;;;9.18;79.52;101538.14;124568;1099;104277;-71
2022/10/29 07:08:17;;;;;;;47.63;30.20;;;;;;;9.28;79.33;101530.81;124561;1099;104246;-71
2022/10/29 07:10:52;;;;;;;50.37;28.97;;;;;;;9.38;79.27;101527.92;124613;1099;102225;-71
2022/10/29 07:13:23;;;;;;;48.03;30.50;;;;;;;9.49;79.14;101525.88;124561;1099;104269;-72
2022/10/29 07:15:54;;;;;;;48.57;31.33;;;;;;;9.60;79.53;101531.72;124581;1099;104078;-71
2022/10/29 07:18:25;;;;;;;47.50;29.57;;;;;;;9.70;79.39;101523.56;124559;1099;104271;-71
2022/10/29 07:20:56;;;;;;;62.40;30.17;;;;;;;9.85;79.75;101521.80;124552;1099;104220;-71
2022/10/29 07:23:27;;;;;;;48.10;31.13;;;;;;;9.96;79.66;101517.14;124603;1099;104223;-71
2022/10/29 07:25:58;;;;;;;60.80;31.80;;;;;;;10.10;79.06;101514.34;124580;1099;102884;-71
2022/10/29 07:28:30;;;;;;;48.73;30.20;;;;;;;10.20;78.95;101514.92;124540;1099;104561;-71
2022/10/29 07:31:02;;;;;;;48.50;30.67;;;;;;;10.31;78.79;101512.87;124580;1099;104245;-70
2022/10/29 07:33:33;;;;;;;52.37;32.07;;;;;;;10.45;79.23;101517.98;124571;1099;104254;-71
2022/10/29 07:36:04;;;;;;;52.87;33.70;;;;;;;10.57;79.14;101505.51;124530;1099;104232;-70
2022/10/29 07:38:35;;;;;;;58.83;35.30;;;;;;;10.70;79.31;101499.16;124541;1099;104265;-70
2022/10/29 07:41:07;;;;;;;50.20;33.20;;;;;;;10.87;79.04;101502.64;124520;1099;101853;-71
2022/10/29 07:43:38;;;;;;;49.37;32.07;;;;;;;11.03;79.17;101502.60;124592;1099;104195;-71
2022/10/29 07:46:09;;;;;;;55.17;33.03;;;;;;;11.17;79.25;101495.38;124577;1099;104169;-71
2022/10/29 07:48:40;;;;;;;51.77;32.60;;;;;;;11.31;78.84;101501.30;124546;1099;104309;-70
2022/10/29 07:51:11;;;;;;;53.40;33.37;;;;;;;11.47;78.90;101489.83;124560;1098;104179;-71
2022/10/29 07:53:45;;;;;;;52.93;33.00;;;;;;;11.63;79.00;101499.34;124548;1099;104370;-71
2022/10/29 07:56:16;;;;;;;62.10;34.20;;;;;;;11.80;79.07;101495.77;124556;1099;103648;-70
2022/10/29 07:58:47;;;;;;;52.90;32.80;;;;;;;11.98;78.80;101489.58;124548;1099;104280;-71
2022/10/29 08:01:18;;;;;;;55.90;34.07;;;;;;;12.14;78.61;101491.16;124555;1099;102883;-71
2022/10/29 08:03:51;;;;;;;52.37;29.37;;;;;;;12.30;78.86;101483.14;124548;1099;104166;-71
2022/10/29 08:06:22;;;;;;;42.80;24.00;;;;;;;12.50;78.38;101485.77;124524;1099;102908;-71
2022/10/29 08:08:54;;;;;;;44.67;28.00;;;;;;;12.66;78.94;101482.94;124577;1098;104217;-70
2022/10/29 08:11:26;;;;;;;28.97;17.40;;;;;;;12.83;78.69;101488.92;124578;1099;104345;-71
2022/10/29 08:13:57;;;;;;;27.93;14.30;;;;;;;13.03;78.43;101486.24;124524;1099;102629;-70
2022/10/29 08:16:28;;;;;;;25.43;13.70;;;;;;;13.19;78.54;101478.11;124581;1099;104402;-71
2022/10/29 08:18:59;;;;;;;27.07;13.93;;;;;;;13.33;78.43;101478.70;124520;1099;104210;-71
2022/10/29 08:21:30;;;;;;;27.50;12.40;;;;;;;13.50;78.80;101482.02;124570;1099;104162;-71
2022/10/29 08:24:01;;;;;;;25.93;12.87;;;;;;;13.68;78.57;101486.20;124542;1099;104230;-70
2022/10/29 08:26:32;;;;;;;24.33;12.70;;;;;;;13.79;78.63;101484.86;124557;1099;104209;-71
2022/10/29 08:29:03;;;;;;;23.00;13.10;;;;;;;13.93;78.44;101482.75;124599;1099;104266;-71
2022/10/29 08:31:34;;;;;;;22.77;12.50;;;;;;;14.05;77.83;101490.24;124551;1099;102877;-71
2022/10/29 08:34:05;;;;;;;28.53;12.90;;;;;;;14.11;76.78;101477.28;124547;1099;104241;-70
2022/10/29 08:36:36;;;;;;;23.93;12.37;;;;;;;14.20;77.22;101475.86;124531;1099;103773;-71
2022/10/29 08:39:07;;;;;;;23.93;12.23;;;;;;;14.32;77.07;101471.86;124556;1099;104233;-70
2022/10/29 08:41:50;;;;;;;26.13;12.73;;;;;;;14.44;76.95;101460.84;124170;1099;104275;-71
2022/10/29 08:44:32;;;;;;;22.73;12.67;;;;;;;14.53;76.48;101456.78;124557;1099;101979;-71
2022/10/29 08:47:12;;;;;;;23.40;11.93;;;;;;;14.64;77.39;101458.94;124543;1099;102860;-70
2022/10/29 08:49:49;;;;;;;24.50;12.33;;;;;;;14.74;76.94;101455.78;124535;1098;104242;-71
2022/10/29 08:52:25;;;;;;;22.60;12.37;;;;;;;14.85;76.61;101451.75;124626;1099;104307;-71
2022/10/29 08:55:06;;;;;;;21.43;11.50;;;;;;;14.97;76.29;101451.23;124555;1099;104744;-71
2022/10/29 08:57:41;;;;;;;20.73;10.93;;;;;;;15.09;75.94;101438.42;124536;1099;104245;-71
2022/10/29 09:00:19;;;;;;;24.43;11.13;;;;;;;15.22;75.67;101433.52;124535;1099;104242;-71
2022/10/29 09:02:55;;;;;;;20.20;10.73;;;;;;;15.36;75.00;101442.78;124575;1099;104310;-70
2022/10/29 09:05:32;;;;;;;21.83;10.27;;;;;;;15.48;75.82;101425.52;124555;1099;104166;-70
2022/10/29 09:08:28;;;;;;;21.57;10.80;;;;;;;15.58;74.50;101428.48;124531;1099;104310;-71
2022/10/29 09:11:13;;;;;;;22.83;10.77;;;;;;;15.72;74.44;101428.91;124506;1099;103875;-71
2022/10/29 09:13:53;;;;;;;18.83;10.40;;;;;;;15.81;74.97;101421.23;124547;1099;104210;-71
2022/10/29 09:16:41;;;;;;;18.40;9.40;;;;;;;15.92;73.95;101420.66;124537;1099;104287;-70
2022/10/29 09:19:28;;;;;;;22.17;9.83;;;;;;;16.00;73.64;101429.70;124544;1099;104211;-70
2022/10/29 09:22:09;;;;;;;19.00;9.33;;;;;;;16.10;74.00;101418.53;124574;1099;104313;-71
2022/10/29 09:24:49;;;;;;;20.83;9.10;;;;;;;16.19;73.50;101420.55;124578;1099;104166;-70
2022/10/29 09:27:24;;;;;;;19.77;9.33;;;;;;;16.26;72.58;101413.66;124518;1098;102318;-71
2022/10/29 09:30:16;;;;;;;19.80;9.57;;;;;;;16.30;72.40;101415.55;124524;1099;104201;-71
2022/10/29 09:32:57;;;;;;;19.00;10.17;;;;;;;16.38;72.84;101419.28;124537;1099;104169;-71
2022/10/29 09:35:39;;;;;;;17.70;8.80;;;;;;;16.46;71.95;101417.72;124502;1099;104169;-71
2022/10/29 09:38:17;;;;;;;18.63;9.27;;;;;;;16.52;71.90;101414.34;124485;1099;104214;-71
2022/10/29 09:40:48;;;;;;;19.83;9.90;;;;;;;16.56;71.27;101418.84;124598;1098;104047;-71
2022/10/29 09:43:32;;;;;;;20.63;9.17;;;;;;;16.61;71.62;101414.59;124557;1099;104214;-71
2022/10/29 09:46:13;;;;;;;;;;;;;;;16.69;68.48;101409.48;124620;1099;104264;-71
2022/10/29 09:48:51;;;;;;;21.17;9.27;;;;;;;16.73;70.65;101398.08;124606;1099;104291;-71
2022/10/29 09:51:31;;;;;;;19.90;9.97;;;;;;;16.77;70.77;101404.38;124557;1099;104172;-71
2022/10/29 09:54:04;;;;;;;21.07;9.43;;;;;;;16.84;70.98;101399.27;124610;1099;104229;-71
2022/10/29 09:56:35;;;;;;;21.00;9.37;;;;;;;16.91;70.44;101394.11;124610;1099;104156;-71
2022/10/29 09:59:17;;;;;;;19.03;9.47;;;;;;;16.99;70.52;101384.61;124623;1099;103821;-71
2022/10/29 10:01:49;;;;;;;19.47;9.40;;;;;;;17.05;70.10;101377.69;124606;1099;104194;-70
2022/10/29 10:04:27;;;;;;;17.07;8.33;;;;;;;17.12;70.24;101376.06;124629;1099;104009;-70
2022/10/29 10:07:07;;;;;;;21.60;8.70;;;;;;;17.19;69.43;101377.12;124663;1099;104051;-71
2022/10/29 10:09:58;;;;;;;20.37;8.80;;;;;;;17.27;69.31;101371.98;124710;1099;104183;-71
2022/10/29 10:12:43;;;;;;;17.43;8.53;;;;;;;17.34;69.42;101368.58;124752;1099;103386;-71
2022/10/29 10:15:23;;;;;;;18.53;9.20;;;;;;;17.38;68.91;101365.15;124657;1099;104261;-71
2022/10/29 10:18:01;;;;;;;17.67;8.63;;;;;;;17.43;68.60;101364.36;124523;1099;104380;-71
2022/10/29 10:20:41;;;;;;;18.53;8.93;;;;;;;17.49;67.88;101353.00;124558;1099;104331;-71
2022/10/29 10:23:24;;;;;;;15.60;8.40;;;;;;;17.52;68.08;101347.75;124553;1098;104218;-71
2022/10/29 10:25:58;;;;;;;19.67;8.87;;;;;;;17.56;68.25;101344.31;124571;1098;104255;-71
2022/10/29 10:28:30;;;;;;;16.27;8.15;;;;;;;17.59;68.01;101339.06;124514;1099;104245;-71
2022/10/29 10:31:21;;;;;;;15.43;8.47;;;;;;;17.66;67.55;101332.11;124561;1099;104241;-71
2022/10/29 10:33:54;;;;;;;15.83;8.10;;;;;;;17.71;67.42;101322.47;124516;1098;104259;-71
2022/10/29 10:36:29;;;;;;;19.17;8.35;;;;;;;17.76;67.38;101322.56;124555;1099;104229;-71
2022/10/29 10:39:01;;;;;;;18.77;8.17;;;;;;;17.83;67.47;101320.95;124539;1099;104219;-71
2022/10/29 10:41:35;;;;;;;16.10;7.73;;;;;;;17.84;66.56;101313.01;124534;1099;104185;-71
2022/10/29 10:44:06;;;;;;;17.03;8.00;;;;;;;17.90;66.88;101313.16;124495;1099;104212;-71
2022/10/29 10:46:44;;;;;;;16.23;7.63;;;;;;;17.93;66.42;101299.02;124548;1099;103858;-71
2022/10/29 10:49:18;;;;;;;16.50;7.70;;;;;;;17.94;66.47;101299.05;124550;1099;109427;-71
2022/10/29 10:51:52;;;;;;;19.80;7.90;;;;;;;17.98;66.04;101293.80;124602;1096;104264;-71
2022/10/29 10:54:35;;;;;;;17.45;7.70;;;;;;;18.01;65.48;101300.05;124506;1099;104187;-71
2022/10/29 10:57:19;;;;;;;17.70;7.93;;;;;;;18.03;65.81;101289.45;124541;1099;104166;-71
2022/10/29 10:59:57;;;;;;;16.93;7.77;;;;;;;18.06;65.09;101289.51;124073;1099;103741;-71
2022/10/29 11:02:35;;;;;;;15.20;7.40;;;;;;;18.09;65.46;101286.91;124555;1099;102871;-71
2022/10/29 11:05:16;;;;;;;17.50;7.53;;;;;;;18.12;65.58;101282.56;124085;1099;101878;-71
2022/10/29 11:07:54;;;;;;;16.40;7.30;;;;;;;18.14;65.04;101277.28;124512;1099;104267;-70
2022/10/29 11:10:32;;;;;;;14.47;7.73;;;;;;;18.14;64.74;101270.20;124535;1099;104341;-71
2022/10/29 11:13:08;;;;;;;15.23;7.17;;;;;;;18.13;64.83;101273.70;124540;1099;103675;-71
2022/10/29 11:15:45;;;;;;;17.93;6.83;;;;;;;18.16;64.48;101274.65;124553;1099;104169;-71
2022/10/29 11:18:22;;;;;;;16.97;7.57;;;;;;;18.18;63.72;101265.81;124334;1099;104181;-71
2022/10/29 11:21:01;;;;;;;14.67;7.90;;;;;;;18.19;64.28;101264.08;124557;1099;102296;-71
2022/10/29 11:23:43;;;;;;;16.93;7.63;;;;;;;18.19;63.62;101264.96;124480;1099;104061;-71
2022/10/29 11:26:17;;;;;;;16.00;7.40;;;;;;;18.22;63.31;101261.47;124524;1099;104402;-71
2022/10/29 11:28:55;;;;;;;18.87;8.23;;;;;;;18.21;63.33;101260.55;124557;1099;104248;-71
2022/10/29 11:31:34;;;;;;;15.23;8.17;;;;;;;18.21;63.54;101252.59;124513;1099;104168;-71
2022/10/29 11:34:10;;;;;;;19.23;7.97;;;;;;;18.23;63.39;101239.33;124550;1099;103639;-71